createdAt,value
2022-08-20T00:00:05.381Z,14.9
2022-08-20T00:01:05.977Z,15.5
2022-08-20T00:02:06.604Z,16.1
2022-08-20T00:03:07.172Z,15.5
2022-08-20T00:04:07.772Z,16.7
2022-08-20T00:05:09.363Z,15.4
2022-08-20T00:06:09.971Z,15.6
2022-08-20T00:07:10.562Z,17.8
2022-08-20T00:08:11.176Z,15.9
2022-08-20T00:09:11.773Z,15.5
2022-08-20T00:10:12.380Z,16.0
2022-08-20T00:11:12.969Z,15.2
2022-08-20T00:12:13.568Z,16.2
2022-08-20T00:13:14.165Z,17.1
2022-08-20T00:14:15.757Z,15.4
2022-08-20T00:15:16.353Z,15.9
2022-08-20T00:16:16.953Z,16.3
2022-08-20T00:17:17.549Z,18.0
2022-08-20T00:18:18.149Z,18.6
2022-08-20T00:19:18.746Z,17.0
2022-08-20T00:20:19.346Z,16.4
2022-08-20T00:21:19.944Z,16.3
2022-08-20T00:22:20.753Z,16.1
2022-08-20T00:23:21.349Z,15.6
2022-08-20T00:24:21.947Z,18.9
2022-08-20T00:25:22.547Z,16.7
2022-08-20T00:26:23.144Z,16.7
2022-08-20T00:27:23.743Z,16.5
2022-08-20T00:28:24.340Z,15.9
2022-08-20T00:29:24.942Z,16.6
2022-08-20T00:30:25.557Z,17.1
2022-08-20T00:31:26.164Z,18.1
2022-08-20T00:32:26.754Z,17.7
2022-08-20T00:33:27.371Z,16.3
2022-08-20T00:34:27.952Z,17.9
2022-08-20T00:35:28.553Z,15.9
2022-08-20T00:36:32.845Z,16.0
2022-08-20T00:37:30.739Z,17.5
2022-08-20T00:38:31.339Z,18.1
2022-08-20T00:39:31.972Z,16.1
2022-08-20T00:40:32.535Z,16.7
2022-08-20T00:41:33.133Z,16.8
2022-08-20T00:42:33.731Z,16.5
2022-08-20T00:43:34.332Z,16.3
2022-08-20T00:44:34.926Z,18.0
2022-08-20T00:45:35.526Z,15.9
2022-08-20T00:46:36.125Z,16.6
2022-08-20T00:47:36.724Z,18.2
2022-08-20T00:48:37.320Z,15.7
2022-08-20T00:49:37.917Z,15.3
2022-08-20T00:50:38.535Z,16.9
2022-08-20T00:51:39.133Z,16.1
2022-08-20T00:52:39.731Z,19.5
2022-08-20T00:53:41.323Z,16.7
2022-08-20T00:54:41.922Z,17.2
2022-08-20T00:55:42.539Z,14.9
2022-08-20T00:56:43.138Z,17.6
2022-08-20T00:57:58.903Z,17.4
2022-08-20T00:58:45.331Z,16.2
2022-08-20T00:59:45.929Z,16.8
2022-08-20T01:00:46.530Z,16.5
2022-08-20T01:01:56.205Z,15.8
2022-08-20T01:02:48.736Z,15.1
2022-08-20T01:03:49.334Z,16.1
2022-08-20T01:04:49.941Z,16.1
2022-08-20T01:05:50.554Z,16.0
2022-08-20T01:06:51.151Z,17.6
2022-08-20T01:07:51.778Z,18.0
2022-08-20T01:08:53.392Z,15.7
2022-08-20T01:09:59.051Z,15.8
2022-08-20T01:10:55.582Z,16.4
2022-08-20T01:11:56.181Z,17.1
2022-08-20T01:12:59.174Z,16.4
2022-08-20T01:13:58.376Z,15.9
2022-08-20T01:14:58.969Z,15.1
2022-08-20T01:15:59.568Z,16.7
2022-08-20T01:17:00.166Z,15.6
2022-08-20T01:18:00.765Z,15.9
2022-08-20T01:19:01.364Z,16.4
2022-08-20T01:20:01.966Z,18.9
2022-08-20T01:21:02.560Z,16.3
2022-08-20T01:22:03.173Z,15.8
2022-08-20T01:23:03.758Z,17.2
2022-08-20T01:24:04.357Z,18.2
2022-08-20T01:25:04.955Z,16.0
2022-08-20T01:26:05.554Z,17.3
2022-08-20T01:27:06.152Z,22.4
2022-08-20T01:28:06.769Z,16.2
2022-08-20T01:29:07.367Z,16.1
2022-08-20T01:30:07.965Z,16.5
2022-08-20T01:31:09.021Z,16.2
2022-08-20T01:32:09.619Z,17.7
2022-08-20T01:33:10.216Z,17.3
2022-08-20T01:34:10.834Z,16.9
2022-08-20T01:35:11.430Z,17.1
2022-08-20T01:36:12.831Z,16.0
2022-08-20T01:37:13.401Z,15.8
2022-08-20T01:38:14.001Z,15.3
2022-08-20T01:39:14.602Z,15.4
2022-08-20T01:40:15.288Z,17.5
2022-08-20T01:41:15.868Z,15.2
2022-08-20T01:42:16.466Z,15.9
2022-08-20T01:43:17.272Z,16.6
2022-08-20T01:44:18.735Z,16.4
2022-08-20T01:45:19.964Z,16.0
2022-08-20T01:46:21.559Z,15.7
2022-08-20T01:47:22.630Z,16.0
2022-08-20T01:48:23.227Z,16.9
2022-08-20T01:49:23.851Z,17.0
2022-08-20T01:50:24.449Z,15.9
2022-08-20T01:51:25.046Z,16.5
2022-08-20T01:52:25.645Z,16.1
2022-08-20T01:53:26.241Z,14.9
2022-08-20T01:54:26.839Z,16.8
2022-08-20T01:55:27.446Z,15.0
2022-08-20T01:56:28.057Z,16.0
2022-08-20T01:57:28.654Z,16.8
2022-08-20T01:58:29.253Z,17.3
2022-08-20T01:59:29.849Z,15.4
2022-08-20T02:00:30.448Z,16.7
2022-08-20T02:01:31.083Z,17.8
2022-08-20T02:02:32.638Z,15.0
2022-08-20T02:03:38.044Z,15.8
2022-08-20T02:04:34.828Z,18.4
2022-08-20T02:05:35.427Z,15.8
2022-08-20T02:06:36.026Z,20.1
2022-08-20T02:07:36.622Z,24.1
2022-08-20T02:08:37.221Z,15.2
2022-08-20T02:09:37.819Z,16.8
2022-08-20T02:10:38.415Z,15.9
2022-08-20T02:11:39.013Z,19.1
2022-08-20T02:12:39.613Z,17.4
2022-08-20T02:13:40.210Z,18.5
2022-08-20T02:14:40.808Z,17.7
2022-08-20T02:15:43.250Z,16.2
2022-08-20T02:16:42.996Z,16.0
2022-08-20T02:17:43.595Z,16.1
2022-08-20T02:18:44.195Z,16.3
2022-08-20T02:19:44.791Z,17.8
2022-08-20T02:20:45.409Z,29.7
2022-08-20T02:21:46.007Z,16.0
2022-08-20T02:22:49.800Z,17.3
2022-08-20T02:23:48.194Z,16.0
2022-08-20T02:24:48.792Z,15.3
2022-08-20T02:25:49.410Z,16.6
2022-08-20T02:26:50.022Z,16.1
2022-08-20T02:27:50.607Z,19.9
2022-08-20T02:28:51.207Z,16.5
2022-08-20T02:29:51.805Z,17.7
2022-08-20T02:30:52.403Z,15.9
2022-08-20T02:32:24.422Z,15.4
2022-08-20T02:32:56.286Z,16.2
2022-08-20T02:34:21.943Z,16.0
2022-08-20T02:34:57.795Z,15.2
2022-08-20T02:35:58.392Z,19.6
2022-08-20T02:36:58.990Z,15.7
2022-08-20T02:37:59.588Z,17.8
2022-08-20T02:39:00.186Z,14.5
2022-08-20T02:40:00.828Z,15.1
2022-08-20T02:41:01.483Z,15.6
2022-08-20T02:42:02.081Z,15.8
2022-08-20T02:43:02.677Z,15.1
2022-08-20T02:44:03.276Z,16.3
2022-08-20T02:45:03.875Z,15.3
2022-08-20T02:46:04.473Z,16.4
2022-08-20T02:47:05.073Z,15.6
2022-08-20T02:48:05.671Z,15.9
2022-08-20T02:49:06.272Z,15.6
2022-08-20T02:50:08.015Z,16.7
2022-08-20T02:51:08.460Z,19.0
2022-08-20T02:52:09.059Z,16.0
2022-08-20T02:53:09.658Z,17.4
2022-08-20T02:54:10.253Z,17.2
2022-08-20T02:55:10.850Z,17.8
2022-08-20T02:56:12.441Z,16.8
2022-08-20T02:57:13.039Z,20.9
2022-08-20T02:58:13.634Z,18.4
2022-08-20T02:59:19.054Z,16.9
2022-08-20T03:00:15.824Z,16.5
2022-08-20T03:01:16.467Z,16.4
2022-08-20T03:02:17.015Z,15.7
2022-08-20T03:03:17.613Z,16.8
2022-08-20T03:04:18.210Z,18.0
2022-08-20T03:05:18.810Z,17.2
2022-08-20T03:06:19.407Z,16.8
2022-08-20T03:07:20.005Z,17.7
2022-08-20T03:08:20.602Z,18.0
2022-08-20T03:09:21.200Z,17.3
2022-08-20T03:10:21.800Z,18.2
2022-08-20T03:11:23.391Z,17.3
2022-08-20T03:12:23.991Z,17.4
2022-08-20T03:13:24.607Z,20.3
2022-08-20T03:14:25.201Z,16.9
2022-08-20T03:15:25.803Z,18.5
2022-08-20T03:16:26.401Z,17.5
2022-08-20T03:17:27.457Z,17.9
2022-08-20T03:18:28.056Z,16.9
2022-08-20T03:19:28.656Z,18.0
2022-08-20T03:20:29.253Z,17.5
2022-08-20T03:21:29.852Z,17.7
2022-08-20T03:22:30.452Z,18.4
2022-08-20T03:23:31.048Z,17.7
2022-08-20T03:24:31.645Z,17.4
2022-08-20T03:25:32.244Z,17.7
2022-08-20T03:26:32.842Z,16.8
2022-08-20T03:27:36.444Z,16.8
2022-08-20T03:28:35.040Z,17.1
2022-08-20T03:29:35.634Z,16.5
2022-08-20T03:30:36.228Z,20.9
2022-08-20T03:31:36.831Z,18.4
2022-08-20T03:32:37.446Z,16.8
2022-08-20T03:33:38.044Z,17.7
2022-08-20T03:34:39.634Z,18.2
2022-08-20T03:35:40.232Z,17.0
2022-08-20T03:36:40.830Z,17.7
2022-08-20T03:37:42.173Z,19.3
2022-08-20T03:38:43.018Z,19.1
2022-08-20T03:39:43.648Z,20.5
2022-08-20T03:40:44.224Z,19.4
2022-08-20T03:41:44.823Z,21.7
2022-08-20T03:42:45.419Z,24.2
2022-08-20T03:43:46.018Z,21.2
2022-08-20T03:44:46.618Z,21.6
2022-08-20T03:45:47.216Z,24.7
2022-08-20T03:46:47.817Z,23.0
2022-08-20T03:47:48.414Z,24.1
2022-08-20T03:48:49.019Z,22.6
2022-08-20T03:49:50.602Z,22.6
2022-08-20T03:50:51.202Z,22.4
2022-08-20T03:51:57.463Z,23.0
2022-08-20T03:52:53.390Z,23.9
2022-08-20T03:53:53.989Z,23.2
2022-08-20T03:54:54.588Z,25.3
2022-08-20T03:55:56.446Z,23.0
2022-08-20T03:56:56.779Z,24.5
2022-08-20T03:57:57.573Z,27.8
2022-08-20T03:58:58.221Z,24.3
2022-08-20T03:59:58.821Z,24.3
2022-08-20T04:00:59.465Z,24.1
2022-08-20T04:02:00.126Z,25.6
2022-08-20T04:03:00.776Z,28.3
2022-08-20T04:04:01.350Z,26.0
2022-08-20T04:05:01.947Z,25.9
2022-08-20T04:06:02.546Z,24.8
2022-08-20T04:07:03.143Z,25.7
2022-08-20T04:08:03.751Z,26.8
2022-08-20T04:09:04.343Z,26.1
2022-08-20T04:10:04.945Z,27.0
2022-08-20T04:11:05.545Z,25.0
2022-08-20T04:12:06.145Z,27.6
2022-08-20T04:13:06.745Z,29.0
2022-08-20T04:14:07.732Z,28.9
2022-08-20T04:15:09.327Z,27.7
2022-08-20T04:16:13.467Z,27.6
2022-08-20T04:17:12.515Z,26.7
2022-08-20T04:18:13.351Z,28.0
2022-08-20T04:19:13.952Z,28.9
2022-08-20T04:20:14.556Z,28.5
2022-08-20T04:21:15.156Z,30.2
2022-08-20T04:22:15.760Z,28.3
2022-08-20T04:23:16.381Z,28.1
2022-08-20T04:24:21.942Z,26.8
2022-08-20T04:25:18.578Z,30.0
2022-08-20T04:26:20.173Z,27.8
2022-08-20T04:27:20.773Z,28.6
2022-08-20T04:28:21.376Z,27.4
2022-08-20T04:29:21.978Z,28.7
2022-08-20T04:30:22.578Z,27.2
2022-08-20T04:31:25.042Z,28.5
2022-08-20T04:32:24.773Z,29.1
2022-08-20T04:33:33.795Z,26.7
2022-08-20T04:34:25.989Z,27.1
2022-08-20T04:35:26.593Z,28.9
2022-08-20T04:36:27.198Z,28.7
2022-08-20T04:37:27.801Z,32.1
2022-08-20T04:38:50.662Z,30.3
2022-08-20T04:39:29.998Z,31.8
2022-08-20T04:40:30.600Z,28.5
2022-08-20T04:41:31.204Z,27.5
2022-08-20T04:42:31.806Z,31.0
2022-08-20T04:43:33.158Z,30.2
2022-08-20T04:44:33.760Z,29.3
2022-08-20T04:45:34.363Z,30.4
2022-08-20T04:46:34.984Z,31.1
2022-08-20T04:47:35.585Z,30.7
2022-08-20T04:48:36.186Z,29.3
2022-08-20T04:49:37.122Z,30.7
2022-08-20T04:50:37.727Z,33.0
2022-08-20T04:51:38.349Z,30.1
2022-08-20T04:52:38.955Z,31.2
2022-08-20T04:53:39.573Z,30.8
2022-08-20T04:54:40.177Z,32.3
2022-08-20T04:55:40.783Z,32.5
2022-08-20T04:56:41.381Z,30.6
2022-08-20T04:57:41.983Z,29.8
2022-08-20T04:58:42.584Z,32.6
2022-08-20T04:59:43.189Z,31.4
2022-08-20T05:00:43.798Z,30.5
2022-08-20T05:01:44.396Z,32.6
2022-08-20T05:02:44.997Z,30.5
2022-08-20T05:03:45.602Z,32.3
2022-08-20T05:04:46.203Z,32.2
2022-08-20T05:05:46.806Z,31.2
2022-08-20T05:06:47.407Z,30.7
2022-08-20T05:07:48.009Z,32.9
2022-08-20T05:08:48.611Z,31.0
2022-08-20T05:09:49.212Z,34.0
2022-08-20T05:10:49.821Z,33.8
2022-08-20T05:11:51.411Z,34.8
2022-08-20T05:12:56.564Z,30.5
2022-08-20T05:13:53.609Z,27.7
2022-08-20T05:14:54.232Z,31.3
2022-08-20T05:15:54.834Z,30.0
2022-08-20T05:16:55.437Z,34.2
2022-08-20T05:17:56.174Z,30.1
2022-08-20T05:18:56.824Z,32.6
2022-08-20T05:19:57.415Z,32.5
2022-08-20T05:20:58.032Z,29.9
2022-08-20T05:21:58.616Z,32.1
2022-08-20T05:22:59.707Z,29.8
2022-08-20T05:24:00.308Z,30.1
2022-08-20T05:25:00.910Z,29.4
2022-08-20T05:26:01.514Z,29.8
2022-08-20T05:27:03.110Z,29.6
2022-08-20T05:28:03.733Z,32.3
2022-08-20T05:29:04.338Z,30.7
2022-08-20T05:30:04.938Z,32.6
2022-08-20T05:31:05.558Z,32.8
2022-08-20T05:32:06.164Z,36.8
2022-08-20T05:33:06.767Z,32.6
2022-08-20T05:34:07.373Z,34.3
2022-08-20T05:35:07.974Z,33.7
2022-08-20T05:36:08.580Z,30.3
2022-08-20T05:37:09.182Z,33.3
2022-08-20T05:38:09.788Z,36.4
2022-08-20T05:39:10.434Z,31.7
2022-08-20T05:40:11.070Z,32.0
2022-08-20T05:41:11.668Z,32.3
2022-08-20T05:42:13.265Z,32.3
2022-08-20T05:43:13.869Z,32.9
2022-08-20T05:44:14.477Z,37.4
2022-08-20T05:45:15.097Z,31.8
2022-08-20T05:46:15.700Z,32.4
2022-08-20T05:47:16.303Z,33.4
2022-08-20T05:48:16.911Z,30.1
2022-08-20T05:49:17.532Z,33.7
2022-08-20T05:50:20.646Z,35.5
2022-08-20T05:51:19.735Z,31.6
2022-08-20T05:52:20.337Z,35.4
2022-08-20T05:53:20.941Z,31.8
2022-08-20T05:54:21.545Z,35.3
2022-08-20T05:55:22.148Z,33.4
2022-08-20T05:56:26.872Z,34.5
2022-08-20T05:57:24.349Z,36.7
2022-08-20T05:58:24.955Z,33.6
2022-08-20T05:59:25.559Z,40.9
2022-08-20T06:00:26.163Z,33.5
2022-08-20T06:01:26.822Z,35.0
2022-08-20T06:02:27.378Z,37.4
2022-08-20T06:03:27.982Z,36.3
2022-08-20T06:04:28.743Z,31.5
2022-08-20T06:05:29.324Z,35.8
2022-08-20T06:06:45.143Z,30.4
2022-08-20T06:07:31.532Z,37.1
2022-08-20T06:08:32.155Z,33.9
2022-08-20T06:09:32.942Z,34.3
2022-08-20T06:10:33.549Z,37.1
2022-08-20T06:11:37.240Z,36.1
2022-08-20T06:12:35.750Z,35.2
2022-08-20T06:13:36.360Z,39.2
2022-08-20T06:14:36.978Z,40.8
2022-08-20T06:15:37.581Z,36.7
2022-08-20T06:16:38.186Z,37.8
2022-08-20T06:17:39.629Z,40.6
2022-08-20T06:18:39.798Z,38.0
2022-08-20T06:19:40.391Z,47.1
2022-08-20T06:20:41.990Z,39.5
2022-08-20T06:21:42.611Z,38.6
2022-08-20T06:22:43.217Z,38.9
2022-08-20T06:23:57.738Z,39.6
2022-08-20T06:24:45.422Z,44.0
2022-08-20T06:25:46.049Z,43.3
2022-08-20T06:26:46.655Z,43.8
2022-08-20T06:27:47.260Z,45.8
2022-08-20T06:28:47.864Z,43.4
2022-08-20T06:29:49.466Z,38.4
2022-08-20T06:30:50.068Z,41.4
2022-08-20T06:31:50.671Z,39.2
2022-08-20T06:32:51.275Z,36.4
2022-08-20T06:33:51.903Z,37.0
2022-08-20T06:34:52.507Z,45.1
2022-08-20T06:35:53.179Z,35.3
2022-08-20T06:36:53.797Z,34.3
2022-08-20T06:37:54.402Z,32.2
2022-08-20T06:38:55.012Z,28.8
2022-08-20T06:39:55.691Z,26.9
2022-08-20T06:40:56.311Z,24.5
2022-08-20T06:41:56.913Z,24.1
2022-08-20T06:42:57.516Z,23.9
2022-08-20T06:43:58.122Z,23.9
2022-08-20T06:44:58.745Z,23.9
2022-08-20T06:45:59.333Z,23.4
2022-08-20T06:46:59.955Z,22.4
2022-08-20T06:48:00.557Z,23.2
2022-08-20T06:49:01.161Z,24.7
2022-08-20T06:50:01.762Z,27.6
2022-08-20T06:51:02.366Z,27.7
2022-08-20T06:52:02.972Z,23.5
2022-08-20T06:53:04.862Z,23.3
2022-08-20T06:54:05.531Z,20.8
2022-08-20T06:55:06.134Z,20.6
2022-08-20T06:56:06.738Z,19.3
2022-08-20T06:57:07.343Z,19.4
2022-08-20T06:58:07.945Z,19.7
2022-08-20T06:59:09.571Z,21.1
2022-08-20T07:00:10.166Z,19.1
2022-08-20T07:01:11.392Z,18.3
2022-08-20T07:02:12.286Z,18.4
2022-08-20T07:03:12.890Z,17.0
2022-08-20T07:04:13.496Z,17.9
2022-08-20T07:05:14.099Z,17.6
2022-08-20T07:06:14.700Z,18.7
2022-08-20T07:07:15.304Z,16.8
2022-08-20T07:08:15.907Z,19.6
2022-08-20T07:09:16.512Z,18.6
2022-08-20T07:10:17.115Z,23.3
2022-08-20T07:11:17.722Z,19.9
2022-08-20T07:12:18.325Z,19.3
2022-08-20T07:13:18.929Z,19.7
2022-08-20T07:14:19.532Z,20.2
2022-08-20T07:15:20.155Z,19.3
2022-08-20T07:16:20.762Z,20.1
2022-08-20T07:17:24.102Z,20.1
2022-08-20T07:18:28.209Z,19.9
2022-08-20T07:19:24.559Z,21.5
2022-08-20T07:20:25.161Z,23.7
2022-08-20T07:21:25.765Z,26.2
2022-08-20T07:22:26.369Z,23.9
2022-08-20T07:23:26.975Z,25.6
2022-08-20T07:24:32.849Z,24.0
2022-08-20T07:25:29.174Z,22.0
2022-08-20T07:26:29.778Z,22.1
2022-08-20T07:27:30.384Z,21.2
2022-08-20T07:28:30.987Z,19.7
2022-08-20T07:29:31.592Z,20.1
2022-08-20T07:30:32.217Z,19.5
2022-08-20T07:31:34.913Z,18.7
2022-08-20T07:32:36.902Z,19.9
2022-08-20T07:33:37.009Z,21.2
2022-08-20T07:34:37.616Z,21.6
2022-08-20T07:35:39.214Z,20.9
2022-08-20T07:36:39.818Z,22.4
2022-08-20T07:37:40.423Z,20.9
2022-08-20T07:38:41.028Z,21.5
2022-08-20T07:39:41.644Z,21.8
2022-08-20T07:40:42.240Z,21.1
2022-08-20T07:41:42.843Z,18.5
2022-08-20T07:42:44.439Z,17.4
2022-08-20T07:43:45.046Z,18.1
2022-08-20T07:44:45.650Z,16.6
2022-08-20T07:45:49.750Z,15.6
2022-08-20T07:46:47.854Z,15.3
2022-08-20T07:47:48.460Z,12.8
2022-08-20T07:48:49.060Z,10.4
2022-08-20T07:49:49.663Z,9.4
2022-08-20T07:50:50.265Z,8.1
2022-08-20T07:51:50.975Z,8.1
2022-08-20T07:52:51.590Z,7.0
2022-08-20T07:53:52.184Z,7.3
2022-08-20T07:54:52.784Z,7.6
2022-08-20T07:55:58.756Z,6.9
2022-08-20T07:56:54.980Z,6.4
2022-08-20T07:57:55.590Z,7.2
2022-08-20T07:58:56.188Z,7.5
2022-08-20T07:59:56.793Z,7.5
2022-08-20T08:00:57.441Z,6.7
2022-08-20T08:01:58.991Z,7.2
2022-08-20T08:02:59.596Z,6.4
2022-08-20T08:04:00.201Z,4.9
2022-08-20T08:05:00.802Z,4.5
2022-08-20T08:06:01.677Z,5.0
2022-08-20T08:07:02.300Z,5.2
2022-08-20T08:08:06.916Z,4.7
2022-08-20T08:09:04.500Z,5.0
2022-08-20T08:10:05.122Z,4.6
2022-08-20T08:11:05.743Z,4.1
2022-08-20T08:12:06.349Z,3.9
2022-08-20T08:13:06.950Z,3.4
2022-08-20T08:14:07.552Z,4.0
2022-08-20T08:15:08.156Z,3.8
2022-08-20T08:16:08.777Z,3.4
2022-08-20T08:17:09.378Z,2.8
2022-08-20T08:18:09.980Z,2.7
2022-08-20T08:19:10.584Z,2.9
2022-08-20T08:20:11.185Z,3.2
2022-08-20T08:21:11.788Z,3.1
2022-08-20T08:22:12.392Z,2.9
2022-08-20T08:23:25.472Z,3.1
2022-08-20T08:24:17.944Z,3.2
2022-08-20T08:25:15.210Z,2.7
2022-08-20T08:26:18.894Z,3.0
2022-08-20T08:27:17.409Z,3.2
2022-08-20T08:28:18.013Z,3.6
2022-08-20T08:29:18.614Z,3.4
2022-08-20T08:30:19.219Z,4.1
2022-08-20T08:31:19.831Z,4.4
2022-08-20T08:32:20.420Z,5.3
2022-08-20T08:33:21.023Z,5.1
2022-08-20T08:34:22.466Z,5.0
2022-08-20T08:35:23.067Z,4.6
2022-08-20T08:36:23.671Z,4.5
2022-08-20T08:37:26.909Z,4.6
2022-08-20T08:38:25.870Z,5.0
2022-08-20T08:39:26.471Z,5.8
2022-08-20T08:40:28.069Z,5.9
2022-08-20T08:41:28.672Z,6.0
2022-08-20T08:42:29.275Z,6.7
2022-08-20T08:43:31.743Z,7.1
2022-08-20T08:44:31.496Z,7.0
2022-08-20T08:45:32.098Z,6.8
2022-08-20T08:46:32.704Z,6.8
2022-08-20T08:47:33.328Z,6.6
2022-08-20T08:48:33.928Z,6.6
2022-08-20T08:49:38.194Z,7.2
2022-08-20T08:50:54.212Z,6.6
2022-08-20T08:51:37.722Z,6.5
2022-08-20T08:52:38.327Z,7.3
2022-08-20T08:53:38.931Z,8.4
2022-08-20T08:54:39.536Z,8.5
2022-08-20T08:55:40.137Z,8.1
2022-08-20T08:56:40.742Z,8.1
2022-08-20T08:57:41.345Z,8.4
2022-08-20T08:58:41.946Z,7.3
2022-08-20T08:59:52.517Z,4.9
2022-08-20T09:00:48.779Z,4.7
2022-08-20T09:01:54.794Z,5.0
2022-08-20T09:02:47.402Z,5.2
2022-08-20T09:03:47.973Z,5.3
2022-08-20T09:04:48.577Z,5.1
2022-08-20T09:05:49.179Z,4.5
2022-08-20T09:06:52.276Z,4.4
2022-08-20T09:07:51.379Z,4.7
2022-08-20T09:08:52.976Z,5.5
2022-08-20T09:09:53.580Z,5.2
2022-08-20T09:10:54.184Z,5.8
2022-08-20T09:11:54.785Z,5.3
2022-08-20T09:12:55.390Z,5.5
2022-08-20T09:13:55.998Z,5.8
2022-08-20T09:14:56.603Z,6.3
2022-08-20T09:15:57.202Z,7.0
2022-08-20T09:16:57.807Z,5.6
2022-08-20T09:17:58.588Z,6.4
2022-08-20T09:19:00.006Z,6.8
2022-08-20T09:20:00.612Z,6.7
2022-08-20T09:21:01.216Z,6.0
2022-08-20T09:22:01.819Z,5.5
2022-08-20T09:23:02.421Z,5.6
2022-08-20T09:24:03.025Z,6.7
2022-08-20T09:25:03.630Z,7.6
2022-08-20T09:26:04.233Z,5.8
2022-08-20T09:27:04.836Z,5.6
2022-08-20T09:28:05.440Z,4.7
2022-08-20T09:29:06.042Z,5.1
2022-08-20T09:30:06.829Z,4.0
2022-08-20T09:31:07.429Z,4.9
2022-08-20T09:32:08.037Z,4.5
2022-08-20T09:33:09.633Z,5.0
2022-08-20T09:34:10.256Z,5.0
2022-08-20T09:35:10.857Z,5.3
2022-08-20T09:36:29.238Z,4.4
2022-08-20T09:37:13.065Z,4.5
2022-08-20T09:38:13.663Z,4.5
2022-08-20T09:39:14.266Z,4.6
2022-08-20T09:40:14.959Z,4.3
2022-08-20T09:41:16.466Z,4.5
2022-08-20T09:42:17.076Z,4.3
2022-08-20T09:43:17.676Z,4.4
2022-08-20T09:44:18.279Z,5.2
2022-08-20T09:45:18.881Z,4.6
2022-08-20T09:46:19.484Z,4.4
2022-08-20T09:47:21.078Z,4.4
2022-08-20T09:48:21.682Z,4.0
2022-08-20T09:49:23.278Z,4.1
2022-08-20T09:50:24.418Z,4.5
2022-08-20T09:51:25.032Z,4.7
2022-08-20T09:52:25.638Z,4.0
2022-08-20T09:53:26.240Z,4.0
2022-08-20T09:54:26.844Z,3.9
2022-08-20T09:55:28.442Z,4.0
2022-08-20T09:56:29.045Z,4.0
2022-08-20T09:57:29.650Z,3.8
2022-08-20T09:58:30.252Z,3.7
2022-08-20T09:59:30.855Z,3.7
2022-08-20T10:00:31.474Z,3.8
2022-08-20T10:01:32.104Z,3.4
2022-08-20T10:02:32.663Z,3.5
2022-08-20T10:03:33.266Z,2.6
2022-08-20T10:04:34.862Z,3.2
2022-08-20T10:05:35.486Z,3.3
2022-08-20T10:06:37.890Z,3.0
2022-08-20T10:07:37.686Z,3.0
2022-08-20T10:08:38.289Z,4.1
2022-08-20T10:09:39.375Z,3.1
2022-08-20T10:10:40.486Z,3.3
2022-08-20T10:11:41.144Z,4.2
2022-08-20T10:12:41.697Z,3.5
2022-08-20T10:13:42.295Z,3.8
2022-08-20T10:14:42.897Z,3.5
2022-08-20T10:15:43.499Z,3.4
2022-08-20T10:16:44.968Z,4.1
2022-08-20T10:17:45.529Z,4.5
2022-08-20T10:18:46.134Z,3.9
2022-08-20T10:19:46.733Z,3.6
2022-08-20T10:20:47.336Z,3.0
2022-08-20T10:21:47.936Z,3.5
2022-08-20T10:22:48.540Z,3.4
2022-08-20T10:23:49.141Z,3.5
2022-08-20T10:24:49.764Z,4.0
2022-08-20T10:25:50.364Z,4.5
2022-08-20T10:26:50.970Z,5.1
2022-08-20T10:27:51.573Z,4.7
2022-08-20T10:28:52.180Z,5.6
2022-08-20T10:29:52.784Z,5.3
2022-08-20T10:30:53.389Z,5.5
2022-08-20T10:31:53.992Z,6.0
2022-08-20T10:32:54.597Z,5.7
2022-08-20T10:33:55.202Z,5.9
2022-08-20T10:34:55.807Z,5.3
2022-08-20T10:35:59.856Z,5.8
2022-08-20T10:36:58.009Z,5.7
2022-08-20T10:37:58.654Z,7.1
2022-08-20T10:38:59.227Z,6.3
2022-08-20T10:39:59.892Z,6.9
2022-08-20T10:41:00.456Z,7.4
2022-08-20T10:42:01.060Z,7.4
2022-08-20T10:43:01.665Z,8.0
2022-08-20T10:44:02.272Z,8.0
2022-08-20T10:45:02.872Z,7.9
2022-08-20T10:46:03.474Z,7.7
2022-08-20T10:47:04.079Z,8.0
2022-08-20T10:48:04.682Z,8.4
2022-08-20T10:49:05.297Z,8.6
2022-08-20T10:50:05.893Z,9.0
2022-08-20T10:51:06.496Z,9.7
2022-08-20T10:52:07.097Z,9.4
2022-08-20T10:53:08.694Z,9.2
2022-08-20T10:54:12.715Z,9.0
2022-08-20T10:55:10.900Z,10.0
2022-08-20T10:56:15.421Z,9.6
2022-08-20T10:57:13.094Z,9.8
2022-08-20T10:58:13.704Z,10.0
2022-08-20T10:59:14.326Z,10.7
2022-08-20T11:00:14.930Z,8.6
2022-08-20T11:01:32.557Z,9.0
2022-08-20T11:02:17.211Z,8.7
2022-08-20T11:03:17.765Z,9.2
2022-08-20T11:04:18.369Z,9.3
2022-08-20T11:05:18.975Z,8.1
2022-08-20T11:06:19.578Z,7.9
2022-08-20T11:07:20.191Z,7.5
2022-08-20T11:08:33.817Z,7.1
2022-08-20T11:09:22.387Z,6.7
2022-08-20T11:10:22.992Z,7.8
2022-08-20T11:11:23.600Z,6.8
2022-08-20T11:12:24.223Z,7.4
2022-08-20T11:13:24.828Z,7.5
2022-08-20T11:14:25.435Z,7.1
2022-08-20T11:15:26.043Z,6.8
2022-08-20T11:16:26.664Z,6.5
2022-08-20T11:17:27.270Z,6.0
2022-08-20T11:18:27.874Z,6.0
2022-08-20T11:19:28.481Z,5.9
2022-08-20T11:20:29.084Z,6.6
2022-08-20T11:21:29.687Z,6.8
2022-08-20T11:22:30.293Z,6.9
2022-08-20T11:23:30.897Z,6.4
2022-08-20T11:24:32.493Z,7.6
2022-08-20T11:25:33.099Z,6.3
2022-08-20T11:26:33.702Z,5.5
2022-08-20T11:27:34.307Z,5.1
2022-08-20T11:28:34.912Z,4.8
2022-08-20T11:29:35.517Z,5.2
2022-08-20T11:30:36.143Z,4.9
2022-08-20T11:31:36.751Z,4.9
2022-08-20T11:32:37.353Z,4.4
2022-08-20T11:33:37.961Z,5.0
2022-08-20T11:34:38.585Z,4.4
2022-08-20T11:35:48.663Z,5.0
2022-08-20T11:36:40.788Z,5.2
2022-08-20T11:37:41.394Z,5.2
2022-08-20T11:38:41.999Z,4.8
2022-08-20T11:39:42.639Z,4.3
2022-08-20T11:40:43.203Z,4.6
2022-08-20T11:41:43.832Z,4.5
2022-08-20T11:43:12.615Z,5.7
2022-08-20T11:44:04.681Z,4.3
2022-08-20T11:44:48.595Z,5.1
2022-08-20T11:45:49.201Z,4.3
2022-08-20T11:46:49.803Z,4.5
2022-08-20T11:47:50.408Z,4.6
2022-08-20T11:48:51.013Z,5.3
2022-08-20T11:49:51.619Z,6.0
2022-08-20T11:50:52.222Z,5.2
2022-08-20T11:51:52.825Z,5.1
2022-08-20T11:52:53.425Z,4.6
2022-08-20T11:53:54.029Z,4.7
2022-08-20T11:54:54.873Z,4.0
2022-08-20T11:55:55.251Z,3.7
2022-08-20T11:56:56.101Z,3.9
2022-08-20T11:57:56.775Z,3.7
2022-08-20T11:58:58.300Z,3.2
2022-08-20T11:59:58.907Z,3.7
2022-08-20T12:00:59.511Z,4.5
2022-08-20T12:02:02.957Z,4.5
2022-08-20T12:03:01.826Z,3.8
2022-08-20T12:04:02.490Z,3.9
2022-08-20T12:05:03.095Z,4.7
2022-08-20T12:06:03.694Z,4.2
2022-08-20T12:07:04.297Z,3.9
2022-08-20T12:08:04.906Z,4.8
2022-08-20T12:09:05.501Z,6.3
2022-08-20T12:10:06.123Z,4.1
2022-08-20T12:11:06.722Z,4.2
2022-08-20T12:12:07.325Z,6.6
2022-08-20T12:13:07.926Z,3.5
2022-08-20T12:14:08.530Z,3.8
2022-08-20T12:15:09.130Z,5.9
2022-08-20T12:16:09.733Z,8.8
2022-08-20T12:17:10.357Z,4.9
2022-08-20T12:18:10.962Z,4.8
2022-08-20T12:19:11.572Z,5.1
2022-08-20T12:20:12.174Z,4.3
2022-08-20T12:21:12.784Z,5.1
2022-08-20T12:22:24.530Z,5.9
2022-08-20T12:23:14.980Z,5.9
2022-08-20T12:24:15.586Z,4.5
2022-08-20T12:25:16.193Z,3.7
2022-08-20T12:26:16.823Z,4.6
2022-08-20T12:27:17.397Z,3.8
2022-08-20T12:28:18.003Z,4.1
2022-08-20T12:29:19.600Z,4.5
2022-08-20T12:30:20.203Z,4.7
2022-08-20T12:31:20.817Z,6.8
2022-08-20T12:32:21.414Z,4.3
2022-08-20T12:33:22.021Z,6.6
2022-08-20T12:34:22.624Z,5.2
2022-08-20T12:35:23.228Z,3.7
2022-08-20T12:36:23.835Z,3.9
2022-08-20T12:37:24.438Z,3.3
2022-08-20T12:38:25.044Z,7.8
2022-08-20T12:39:25.649Z,3.1
2022-08-20T12:40:32.299Z,3.0
2022-08-20T12:41:27.850Z,3.2
2022-08-20T12:42:28.454Z,3.4
2022-08-20T12:43:29.058Z,3.7
2022-08-20T12:44:29.665Z,3.5
2022-08-20T12:45:30.270Z,6.1
2022-08-20T12:46:30.868Z,3.8
2022-08-20T12:47:31.468Z,3.8
2022-08-20T12:48:32.071Z,4.1
2022-08-20T12:49:32.673Z,3.8
2022-08-20T12:50:33.278Z,4.2
2022-08-20T12:51:33.881Z,2.8
2022-08-20T12:52:34.487Z,3.5
2022-08-20T12:53:35.090Z,4.6
2022-08-20T12:54:35.698Z,4.9
2022-08-20T12:55:36.302Z,3.6
2022-08-20T12:56:36.908Z,2.5
2022-08-20T12:57:37.513Z,5.1
2022-08-20T12:58:38.119Z,4.9
2022-08-20T12:59:38.722Z,2.3
2022-08-20T13:00:39.327Z,3.7
2022-08-20T13:01:40.985Z,3.8
2022-08-20T13:02:41.566Z,3.2
2022-08-20T13:03:45.205Z,3.1
2022-08-20T13:04:43.769Z,9.5
2022-08-20T13:05:44.394Z,6.1
2022-08-20T13:06:44.999Z,3.8
2022-08-20T13:07:46.001Z,3.2
2022-08-20T13:08:46.606Z,4.0
2022-08-20T13:09:47.210Z,4.1
2022-08-20T13:10:47.815Z,3.6
2022-08-20T13:11:48.417Z,2.5
2022-08-20T13:12:49.081Z,3.9
2022-08-20T13:13:49.648Z,3.2
2022-08-20T13:14:50.261Z,2.8
2022-08-20T13:15:50.904Z,2.2
2022-08-20T13:16:51.533Z,2.2
2022-08-20T13:17:53.133Z,4.7
2022-08-20T13:18:53.738Z,2.4
2022-08-20T13:19:54.350Z,3.7
2022-08-20T13:20:54.947Z,3.2
2022-08-20T13:21:55.551Z,3.7
2022-08-20T13:22:56.264Z,3.7
2022-08-20T13:23:56.880Z,3.9
2022-08-20T13:24:57.486Z,6.3
2022-08-20T13:25:58.088Z,2.1
2022-08-20T13:26:58.696Z,1.5
2022-08-20T13:27:59.299Z,5.3
2022-08-20T13:28:59.904Z,1.5
2022-08-20T13:30:01.306Z,3.7
2022-08-20T13:31:01.913Z,2.2
2022-08-20T13:32:02.515Z,2.0
2022-08-20T13:33:03.124Z,4.1
2022-08-20T13:34:03.724Z,2.7
2022-08-20T13:35:04.328Z,1.6
2022-08-20T13:36:04.931Z,4.3
2022-08-20T13:37:05.536Z,5.9
2022-08-20T13:38:06.142Z,3.2
2022-08-20T13:39:06.745Z,3.4